Time,TemperatureF,DewpointF,PressureIn,WindDirection,WindDirectionDegrees,WindSpeedMPH,WindSpeedGustMPH,Humidity,HourlyPrecipIn,Conditions,Clouds,dailyrainin,SoftwareType,DateUTC
2013-05-06 00:12:00,51.8,49.5,30.09,North,0,2.5,2.5,92,0.00,,,0.00,WUHU216WMR200,2013-05-06 05:12:00,
2013-05-06 00:27:00,51.6,49.6,30.06,NNE,22,2.0,2.0,93,0.00,,,0.00,WUHU216WMR200,2013-05-06 05:27:00,
2013-05-06 00:42:00,51.6,49.6,30.09,NW,315,3.1,3.1,93,0.00,,,0.00,WUHU216WMR200,2013-05-06 05:42:00,
2013-05-06 00:57:00,51.4,49.4,30.06,North,0,3.1,3.1,93,0.00,,,0.00,WUHU216WMR200,2013-05-06 05:57:00,
2013-05-06 01:12:00,51.4,49.4,30.06,NE,45,0.0,0.0,93,0.00,,,0.00,WUHU216WMR200,2013-05-06 06:12:00,
2013-05-06 01:27:00,51.4,49.7,30.03,NNW,337,4.9,4.9,94,0.00,,,0.00,WUHU216WMR200,2013-05-06 06:27:00,
2013-05-06 01:42:00,51.3,49.3,30.03,NNW,337,3.1,3.1,93,0.00,,,0.00,WUHU216WMR200,2013-05-06 06:42:00,
2013-05-06 01:57:00,51.3,49.6,30.03,WNW,292,2.0,2.0,94,0.00,,,0.00,WUHU216WMR200,2013-05-06 06:57:00,
2013-05-06 02:12:00,51.3,49.6,30.03,West,270,2.9,2.9,94,0.00,,,0.00,WUHU216WMR200,2013-05-06 07:12:00,
2013-05-06 02:27:00,51.3,49.6,30.03,NNE,22,3.1,3.1,94,0.00,,,0.00,WUHU216WMR200,2013-05-06 07:27:00,
2013-05-06 02:42:00,51.1,49.4,30.03,North,0,1.3,1.3,94,0.00,,,0.00,WUHU216WMR200,2013-05-06 07:42:00,
2013-05-06 02:57:00,51.1,49.4,30.03,NE,45,2.5,2.5,94,0.00,,,0.00,WUHU216WMR200,2013-05-06 07:57:00,
2013-05-06 03:12:00,50.9,49.2,30.03,North,0,4.9,4.9,94,0.00,,,0.00,WUHU216WMR200,2013-05-06 08:12:00,
2013-05-06 03:27:00,50.9,49.2,30.03,NNE,22,1.3,1.3,94,0.00,,,0.00,WUHU216WMR200,2013-05-06 08:27:00,
2013-05-06 03:42:00,50.7,49.0,30.03,NNE,22,1.1,1.1,94,0.00,,,0.00,WUHU216WMR200,2013-05-06 08:42:00,
2013-05-06 03:57:00,50.7,49.3,30.03,NNW,337,1.6,1.6,95,0.00,,,0.00,WUHU216WMR200,2013-05-06 08:57:00,
2013-05-06 04:12:00,50.5,49.1,30.06,NW,315,4.0,4.0,95,0.00,,,0.00,WUHU216WMR200,2013-05-06 09:12:00,
2013-05-06 04:27:00,50.5,49.1,30.06,North,0,1.6,1.6,95,0.00,,,0.00,WUHU216WMR200,2013-05-06 09:27:00,
2013-05-06 04:42:00,50.5,49.1,30.06,NNE,22,2.9,2.9,95,0.00,,,0.00,WUHU216WMR200,2013-05-06 09:42:00,
2013-05-06 04:57:00,50.5,49.4,30.03,NNW,337,0.0,0.0,96,0.00,,,0.00,WUHU216WMR200,2013-05-06 09:57:00,
2013-05-06 05:12:00,50.5,49.4,30.06,NW,315,1.3,1.3,96,0.00,,,0.00,WUHU216WMR200,2013-05-06 10:12:00,
2013-05-06 05:27:00,50.5,49.4,30.03,SW,225,1.1,1.1,96,0.00,,,0.00,WUHU216WMR200,2013-05-06 10:27:00,
2013-05-06 05:42:00,50.5,49.4,30.06,North,0,2.7,2.7,96,0.00,,,0.00,WUHU216WMR200,2013-05-06 10:42:00,
2013-05-06 05:57:00,50.5,49.4,30.06,NW,315,3.6,3.6,96,0.00,,,0.00,WUHU216WMR200,2013-05-06 10:57:00,
2013-05-06 06:12:00,50.4,49.6,30.06,NW,315,2.7,2.7,97,0.00,,,0.00,WUHU216WMR200,2013-05-06 11:12:00,
2013-05-06 06:27:00,50.4,49.6,30.06,NW,315,2.5,2.5,97,0.00,,,0.00,WUHU216WMR200,2013-05-06 11:27:00,
2013-05-06 06:42:00,50.4,49.6,30.06,NNE,22,3.1,3.1,97,0.00,,,0.00,WUHU216WMR200,2013-05-06 11:42:00,
2013-05-06 06:57:00,50.4,49.6,30.06,WNW,292,3.4,3.4,97,0.00,,,0.00,WUHU216WMR200,2013-05-06 11:57:00,
2013-05-06 07:12:00,50.4,49.8,30.03,NNE,22,2.0,2.0,98,0.00,,,0.00,WUHU216WMR200,2013-05-06 12:12:00,
2013-05-06 07:27:00,50.5,49.9,30.03,NNE,22,3.4,3.4,98,0.00,,,0.00,WUHU216WMR200,2013-05-06 12:27:00,
2013-05-06 07:43:00,66.9,54.9,29.94,NNE,22,0.0,0.0,65,0.00,,,0.00,WUHU216WMR200,2013-05-06 12:43:00,
2013-05-06 07:45:00,69.7,54.3,30.03,NW,315,2.7,3.8,58,0.00,,,1.16,WUHU216WMR200,2013-05-06 12:45:00,
2013-05-06 07:53:00,50.9,50.3,30.06,NW,315,2.2,5.6,98,0.00,,,1.16,WUHU216WMR200,2013-05-06 12:53:00,
2013-05-06 07:58:00,51.1,50.5,30.06,NNE,22,2.5,5.6,98,0.00,,,1.16,WUHU216WMR200,2013-05-06 12:58:00,
2013-05-06 08:00:00,51.1,50.5,30.06,NNW,337,2.5,5.6,98,0.00,,,1.16,WUHU216WMR200,2013-05-06 13:00:00,
2013-05-06 08:12:00,51.1,50.5,30.06,NE,45,1.1,1.1,98,0.00,,,1.16,WUHU216WMR200,2013-05-06 13:12:00,
2013-05-06 08:27:00,51.3,50.7,30.06,North,0,2.0,2.0,98,0.00,,,1.16,WUHU216WMR200,2013-05-06 13:27:00,
2013-05-06 08:42:00,51.6,51.0,30.06,NNE,22,1.6,1.6,98,0.00,,,1.16,WUHU216WMR200,2013-05-06 13:42:00,
2013-05-06 08:57:00,52.0,51.1,30.06,NNE,22,6.3,6.3,97,0.00,,,1.16,WUHU216WMR200,2013-05-06 13:57:00,
2013-05-06 09:12:00,52.3,51.2,30.06,NW,315,6.0,6.0,96,0.00,,,1.16,WUHU216WMR200,2013-05-06 14:12:00,
2013-05-06 09:27:00,52.2,50.8,30.06,WNW,292,3.8,3.8,95,0.00,,,1.16,WUHU216WMR200,2013-05-06 14:27:00,
2013-05-06 09:42:00,52.3,50.9,30.09,North,0,1.1,1.1,95,0.00,,,1.16,WUHU216WMR200,2013-05-06 14:42:00,
2013-05-06 09:57:00,52.7,51.0,30.09,NE,45,1.1,1.1,94,0.00,,,1.16,WUHU216WMR200,2013-05-06 14:57:00,
2013-05-06 10:12:00,53.2,51.5,30.09,NNW,337,4.3,4.3,94,0.00,,,1.16,WUHU216WMR200,2013-05-06 15:12:00,
2013-05-06 10:27:00,53.8,51.8,30.09,North,0,1.6,1.6,93,0.00,,,1.16,WUHU216WMR200,2013-05-06 15:27:00,
2013-05-06 10:42:00,54.1,51.8,30.09,NNE,22,2.5,2.5,92,0.00,,,1.16,WUHU216WMR200,2013-05-06 15:42:00,
2013-05-06 10:57:00,54.0,51.7,30.09,NNE,22,2.0,2.0,92,0.00,,,1.16,WUHU216WMR200,2013-05-06 15:57:00,
2013-05-06 11:12:00,54.1,51.5,30.12,North,0,1.6,1.6,91,0.00,,,1.16,WUHU216WMR200,2013-05-06 16:12:00,
2013-05-06 11:27:00,55.2,52.3,30.09,NNE,22,2.7,2.7,90,0.00,,,1.16,WUHU216WMR200,2013-05-06 16:27:00,
2013-05-06 11:42:00,56.1,52.6,30.09,NW,315,3.4,3.4,88,0.00,,,1.16,WUHU216WMR200,2013-05-06 16:42:00,
2013-05-06 11:57:00,57.2,52.7,30.09,NNE,22,2.5,2.5,85,0.00,,,1.16,WUHU216WMR200,2013-05-06 16:57:00,
2013-05-06 12:12:00,57.6,52.5,30.09,NNE,22,1.3,1.3,83,0.00,,,1.16,WUHU216WMR200,2013-05-06 17:12:00,
2013-05-06 12:27:00,58.3,52.5,30.09,NNE,22,2.5,2.5,81,0.00,,,1.16,WUHU216WMR200,2013-05-06 17:27:00,
2013-05-06 12:42:00,59.9,54.1,30.09,NNE,22,1.1,1.1,81,0.00,,,1.16,WUHU216WMR200,2013-05-06 17:42:00,
2013-05-06 12:57:00,61.2,53.7,30.06,NNE,22,0.9,0.9,76,0.00,,,1.16,WUHU216WMR200,2013-05-06 17:57:00,
2013-05-06 13:12:00,61.5,52.5,30.06,North,0,3.1,3.1,72,0.00,,,1.16,WUHU216WMR200,2013-05-06 18:12:00,
2013-05-06 13:27:00,62.8,53.4,30.06,NNE,22,2.2,2.2,71,0.00,,,1.16,WUHU216WMR200,2013-05-06 18:27:00,
2013-05-06 13:42:00,64.4,52.1,30.03,ENE,67,2.7,2.7,64,0.00,,,1.16,WUHU216WMR200,2013-05-06 18:42:00,
2013-05-06 13:57:00,66.7,53.9,30.03,North,0,3.6,3.6,63,0.00,,,1.16,WUHU216WMR200,2013-05-06 18:57:00,
2013-05-06 14:12:00,67.5,54.2,30.03,North,0,3.4,3.4,62,0.00,,,1.16,WUHU216WMR200,2013-05-06 19:12:00,
2013-05-06 14:27:00,67.5,54.6,30.06,SW,225,3.6,3.6,63,0.00,,,1.16,WUHU216WMR200,2013-05-06 19:27:00,
2013-05-06 14:42:00,68.2,52.5,30.06,NW,315,5.8,5.8,57,0.00,,,1.16,WUHU216WMR200,2013-05-06 19:42:00,
2013-05-06 14:57:00,68.5,52.8,30.06,SW,225,2.5,2.5,57,0.00,,,1.16,WUHU216WMR200,2013-05-06 19:57:00,
2013-05-06 15:12:00,69.1,52.9,30.06,NNW,337,3.1,3.1,56,0.00,,,1.16,WUHU216WMR200,2013-05-06 20:12:00,
2013-05-06 15:27:00,70.0,53.2,30.03,NW,315,3.6,3.6,55,0.00,,,1.16,WUHU216WMR200,2013-05-06 20:27:00,
2013-05-06 15:42:00,70.7,52.8,30.03,NNE,22,3.4,3.4,53,0.00,,,1.16,WUHU216WMR200,2013-05-06 20:42:00,
2013-05-06 15:57:00,71.2,53.8,30.03,NW,315,2.2,2.2,54,0.00,,,1.16,WUHU216WMR200,2013-05-06 20:57:00,
2013-05-06 16:12:00,71.6,52.6,30.03,NE,45,2.0,2.0,51,0.00,,,1.16,WUHU216WMR200,2013-05-06 21:12:00,
2013-05-06 16:27:00,71.6,53.1,30.00,North,0,2.7,2.7,52,0.00,,,1.16,WUHU216WMR200,2013-05-06 21:27:00,
2013-05-06 16:42:00,71.4,53.0,30.00,NW,315,3.4,3.4,52,0.00,,,1.16,WUHU216WMR200,2013-05-06 21:42:00,
2013-05-06 16:57:00,72.0,53.5,30.00,NNE,22,0.9,0.9,52,0.00,,,1.16,WUHU216WMR200,2013-05-06 21:57:00,
2013-05-06 17:12:00,71.6,53.1,30.00,ENE,67,0.9,0.9,52,0.00,,,1.16,WUHU216WMR200,2013-05-06 22:12:00,
2013-05-06 17:27:00,70.9,51.9,30.00,SSW,202,2.7,2.7,51,0.00,,,1.16,WUHU216WMR200,2013-05-06 22:27:00,
2013-05-06 17:42:00,70.2,51.3,30.00,NE,45,3.4,3.4,51,0.00,,,1.16,WUHU216WMR200,2013-05-06 22:42:00,
2013-05-06 17:57:00,68.9,51.2,30.00,NE,45,0.0,0.0,53,0.00,,,1.16,WUHU216WMR200,2013-05-06 22:57:00,
2013-05-06 18:12:00,67.8,51.7,30.00,NNW,337,2.9,2.9,56,0.00,,,1.16,WUHU216WMR200,2013-05-06 23:12:00,
2013-05-06 18:27:00,66.2,52.1,30.00,NNE,22,2.5,2.5,60,0.00,,,1.16,WUHU216WMR200,2013-05-06 23:27:00,
2013-05-06 18:42:00,65.8,52.6,30.00,NW,315,1.6,1.6,62,0.00,,,1.16,WUHU216WMR200,2013-05-06 23:42:00,
2013-05-06 18:57:00,65.3,52.5,30.00,NE,45,2.0,2.0,63,0.00,,,1.16,WUHU216WMR200,2013-05-06 23:57:00,
2013-05-06 19:12:00,64.9,53.0,30.00,North,0,2.2,2.2,65,0.00,,,1.16,WUHU216WMR200,2013-05-07 00:12:00,
2013-05-06 19:27:00,64.4,52.5,30.00,North,0,2.0,2.0,65,0.00,,,1.16,WUHU216WMR200,2013-05-07 00:27:00,
2013-05-06 19:42:00,63.7,52.3,30.00,NNE,22,1.3,1.3,66,0.00,,,1.16,WUHU216WMR200,2013-05-07 00:42:00,
2013-05-06 19:57:00,62.6,51.6,30.00,NNW,337,0.0,0.0,67,0.00,,,1.16,WUHU216WMR200,2013-05-07 00:57:00,
2013-05-06 20:12:00,60.8,51.1,30.03,NNW,337,0.0,0.0,70,0.00,,,1.16,WUHU216WMR200,2013-05-07 01:12:00,
2013-05-06 20:27:00,59.2,50.7,30.03,NNW,337,0.0,0.0,73,0.00,,,1.16,WUHU216WMR200,2013-05-07 01:27:00,
2013-05-06 20:42:00,57.6,50.5,30.03,NNW,337,0.0,0.0,77,0.00,,,1.16,WUHU216WMR200,2013-05-07 01:42:00,
2013-05-06 20:57:00,57.0,50.9,30.03,NNW,337,0.0,0.0,80,0.00,,,1.16,WUHU216WMR200,2013-05-07 01:57:00,
2013-05-06 21:12:00,56.7,51.3,30.03,NNW,337,0.0,0.0,82,0.00,,,1.16,WUHU216WMR200,2013-05-07 02:12:00,
2013-05-06 21:27:00,56.1,51.0,30.03,NNW,337,0.0,0.0,83,0.00,,,1.16,WUHU216WMR200,2013-05-07 02:27:00,
2013-05-06 21:42:00,56.1,51.7,30.03,NNW,337,0.0,0.0,85,0.00,,,1.16,WUHU216WMR200,2013-05-07 02:42:00,
2013-05-06 21:57:00,56.1,52.3,30.06,ENE,67,0.0,0.0,87,0.00,,,1.16,WUHU216WMR200,2013-05-07 02:57:00,
2013-05-06 22:12:00,55.9,52.1,30.06,North,0,0.0,0.0,87,0.00,,,1.16,WUHU216WMR200,2013-05-07 03:12:00,
2013-05-06 22:27:00,55.6,52.1,30.06,North,0,0.0,0.0,88,0.00,,,1.16,WUHU216WMR200,2013-05-07 03:27:00,
2013-05-06 22:42:00,55.8,52.9,30.06,NNW,337,0.0,0.0,90,0.00,,,1.16,WUHU216WMR200,2013-05-07 03:42:00,
2013-05-06 22:57:00,55.2,52.6,30.06,WNW,292,0.0,0.0,91,0.00,,,1.16,WUHU216WMR200,2013-05-07 03:57:00,
2013-05-06 23:12:00,55.2,52.6,30.06,NNW,337,0.0,0.0,91,0.00,,,1.16,WUHU216WMR200,2013-05-07 04:12:00,
2013-05-06 23:27:00,54.9,52.6,30.06,North,0,1.3,1.3,92,0.00,,,1.16,WUHU216WMR200,2013-05-07 04:27:00,
2013-05-06 23:42:00,54.9,52.6,30.06,NW,315,0.0,0.0,92,0.00,,,1.16,WUHU216WMR200,2013-05-07 04:42:00,
2013-05-06 23:57:00,55.2,53.2,30.06,NNE,22,0.9,0.9,93,0.00,,,1.16,WUHU216WMR200,2013-05-07 04:57:00,